Wendover, Kentucky
Current Conditions -  °F | °C
As of 9:15 AM on Friday 19 Dec 2014 (Local Time) from KI35 Reporting Station
Overcast Overcast  
Wind Chill: 30°   Ceiling: 5000
Heat Index: 34°   Visibility: 10mi
Dew Point: 27°   Wind: 5mph
Humidity: 75%   Direction: 20°NNE
Pressure: 30.21"   Gusts: NA
Location:  37.13°N, 83.36°W
Report Text: KI35 191415Z AUTO 02004KT 10SM OVC050 01/M03 A3021 RMK AO1
Loading
Personal Weather Stations






























Interactive Weather Map New forecast layout! Learn more

10-Day Weather Forecast

Advertisements
Track Severe Weather on mobile